sensor_id;sensor_type;location;lat;lon;timestamp;temperature;humidity
8340;DHT22;4207;49.314;7.162;2023-05-09T00:02:12;14.70;99.90
8340;DHT22;4207;49.314;7.162;2023-05-09T00:04:40;14.70;99.90
8340;DHT22;4207;49.314;7.162;2023-05-09T00:07:08;14.80;99.90
8340;DHT22;4207;49.314;7.162;2023-05-09T00:09:37;14.70;99.90
8340;DHT22;4207;49.314;7.162;2023-05-09T00:12:05;14.80;99.90
8340;DHT22;4207;49.314;7.162;2023-05-09T00:14:36;14.80;99.90
8340;DHT22;4207;49.314;7.162;2023-05-09T00:17:06;14.80;99.90
8340;DHT22;4207;49.314;7.162;2023-05-09T00:19:36;14.80;99.90
8340;DHT22;4207;49.314;7.162;2023-05-09T00:22:06;14.80;99.90
8340;DHT22;4207;49.314;7.162;2023-05-09T00:24:35;14.80;99.90
8340;DHT22;4207;49.314;7.162;2023-05-09T00:27:03;14.80;99.90
8340;DHT22;4207;49.314;7.162;2023-05-09T00:29:31;14.80;99.90
8340;DHT22;4207;49.314;7.162;2023-05-09T00:31:59;14.80;99.90
8340;DHT22;4207;49.314;7.162;2023-05-09T00:34:28;14.70;99.90
8340;DHT22;4207;49.314;7.162;2023-05-09T00:36:57;14.90;99.90
8340;DHT22;4207;49.314;7.162;2023-05-09T00:39:25;14.90;99.90
8340;DHT22;4207;49.314;7.162;2023-05-09T00:41:55;14.90;99.90
8340;DHT22;4207;49.314;7.162;2023-05-09T00:44:23;14.90;99.90
8340;DHT22;4207;49.314;7.162;2023-05-09T00:46:51;14.90;99.90
8340;DHT22;4207;49.314;7.162;2023-05-09T00:49:20;14.90;99.90
8340;DHT22;4207;49.314;7.162;2023-05-09T00:51:49;14.90;99.90
8340;DHT22;4207;49.314;7.162;2023-05-09T00:54:19;14.80;99.90
8340;DHT22;4207;49.314;7.162;2023-05-09T00:56:48;14.80;99.90
8340;DHT22;4207;49.314;7.162;2023-05-09T00:59:16;15.00;99.90
8340;DHT22;4207;49.314;7.162;2023-05-09T01:01:45;14.80;99.90
8340;DHT22;4207;49.314;7.162;2023-05-09T01:04:13;14.80;99.90
8340;DHT22;4207;49.314;7.162;2023-05-09T01:06:50;14.80;99.90
8340;DHT22;4207;49.314;7.162;2023-05-09T01:09:29;14.80;99.90
8340;DHT22;4207;49.314;7.162;2023-05-09T01:12:06;14.70;99.90
8340;DHT22;4207;49.314;7.162;2023-05-09T01:14:55;14.70;99.90
8340;DHT22;4207;49.314;7.162;2023-05-09T01:17:33;14.70;99.90
8340;DHT22;4207;49.314;7.162;2023-05-09T01:20:11;14.70;99.90
8340;DHT22;4207;49.314;7.162;2023-05-09T01:22:47;14.70;99.90
8340;DHT22;4207;49.314;7.162;2023-05-09T01:25:37;14.80;99.90
8340;DHT22;4207;49.314;7.162;2023-05-09T01:28:30;14.70;99.90
8340;DHT22;4207;49.314;7.162;2023-05-09T01:31:03;14.80;99.90
8340;DHT22;4207;49.314;7.162;2023-05-09T01:33:33;14.80;99.90
8340;DHT22;4207;49.314;7.162;2023-05-09T01:36:05;14.80;99.90
8340;DHT22;4207;49.314;7.162;2023-05-09T01:38:37;14.80;99.90
8340;DHT22;4207;49.314;7.162;2023-05-09T01:41:06;14.80;99.90
8340;DHT22;4207;49.314;7.162;2023-05-09T01:43:37;14.80;99.90
8340;DHT22;4207;49.314;7.162;2023-05-09T01:46:08;14.90;99.90
8340;DHT22;4207;49.314;7.162;2023-05-09T01:48:36;14.80;99.90
8340;DHT22;4207;49.314;7.162;2023-05-09T01:51:07;14.80;99.90
8340;DHT22;4207;49.314;7.162;2023-05-09T01:53:35;14.80;99.90
8340;DHT22;4207;49.314;7.162;2023-05-09T01:56:07;14.70;99.90
8340;DHT22;4207;49.314;7.162;2023-05-09T01:58:38;14.80;99.90
8340;DHT22;4207;49.314;7.162;2023-05-09T02:01:09;14.70;99.90
8340;DHT22;4207;49.314;7.162;2023-05-09T02:03:38;14.80;99.90
8340;DHT22;4207;49.314;7.162;2023-05-09T02:06:10;14.70;99.90
8340;DHT22;4207;49.314;7.162;2023-05-09T02:08:39;14.70;99.90
8340;DHT22;4207;49.314;7.162;2023-05-09T02:11:08;14.60;99.90
8340;DHT22;4207;49.314;7.162;2023-05-09T02:13:36;14.60;99.90
8340;DHT22;4207;49.314;7.162;2023-05-09T02:16:05;14.60;99.90
8340;DHT22;4207;49.314;7.162;2023-05-09T02:18:36;14.60;99.90
8340;DHT22;4207;49.314;7.162;2023-05-09T02:21:05;14.70;99.90
8340;DHT22;4207;49.314;7.162;2023-05-09T02:23:33;14.60;99.90
8340;DHT22;4207;49.314;7.162;2023-05-09T02:26:05;14.60;99.90
8340;DHT22;4207;49.314;7.162;2023-05-09T02:28:35;14.60;99.90
8340;DHT22;4207;49.314;7.162;2023-05-09T02:31:05;14.60;99.90
8340;DHT22;4207;49.314;7.162;2023-05-09T02:33:37;14.60;99.90
8340;DHT22;4207;49.314;7.162;2023-05-09T02:36:08;14.60;99.90
8340;DHT22;4207;49.314;7.162;2023-05-09T02:38:38;14.60;99.90
8340;DHT22;4207;49.314;7.162;2023-05-09T02:41:11;14.60;99.90
8340;DHT22;4207;49.314;7.162;2023-05-09T02:43:39;14.60;99.90
8340;DHT22;4207;49.314;7.162;2023-05-09T02:46:08;14.70;99.90
8340;DHT22;4207;49.314;7.162;2023-05-09T02:48:38;14.70;99.90
8340;DHT22;4207;49.314;7.162;2023-05-09T02:51:06;14.70;99.90
8340;DHT22;4207;49.314;7.162;2023-05-09T02:53:37;14.70;99.90
8340;DHT22;4207;49.314;7.162;2023-05-09T02:56:05;14.60;99.90
8340;DHT22;4207;49.314;7.162;2023-05-09T02:58:35;14.60;99.90
8340;DHT22;4207;49.314;7.162;2023-05-09T03:01:04;14.60;99.90
8340;DHT22;4207;49.314;7.162;2023-05-09T03:03:35;14.60;99.90
8340;DHT22;4207;49.314;7.162;2023-05-09T03:06:05;14.60;99.90
8340;DHT22;4207;49.314;7.162;2023-05-09T03:08:34;14.60;99.90
8340;DHT22;4207;49.314;7.162;2023-05-09T03:11:02;14.60;99.90
8340;DHT22;4207;49.314;7.162;2023-05-09T03:13:30;14.60;99.90
8340;DHT22;4207;49.314;7.162;2023-05-09T03:15:58;14.60;99.90
8340;DHT22;4207;49.314;7.162;2023-05-09T03:18:27;14.60;99.90
8340;DHT22;4207;49.314;7.162;2023-05-09T03:20:56;14.60;99.90
8340;DHT22;4207;49.314;7.162;2023-05-09T03:23:26;14.70;99.90
8340;DHT22;4207;49.314;7.162;2023-05-09T03:25:57;14.60;99.90
8340;DHT22;4207;49.314;7.162;2023-05-09T03:28:26;14.60;99.90
8340;DHT22;4207;49.314;7.162;2023-05-09T03:30:58;14.50;99.90
8340;DHT22;4207;49.314;7.162;2023-05-09T03:33:28;14.50;99.90
8340;DHT22;4207;49.314;7.162;2023-05-09T03:35:58;14.60;99.90
8340;DHT22;4207;49.314;7.162;2023-05-09T03:38:28;14.50;99.90
8340;DHT22;4207;49.314;7.162;2023-05-09T03:40:57;14.50;99.90
8340;DHT22;4207;49.314;7.162;2023-05-09T03:43:28;14.50;99.90
8340;DHT22;4207;49.314;7.162;2023-05-09T03:45:56;14.50;99.90
8340;DHT22;4207;49.314;7.162;2023-05-09T03:48:28;14.50;99.90
8340;DHT22;4207;49.314;7.162;2023-05-09T03:50:56;14.40;99.90
8340;DHT22;4207;49.314;7.162;2023-05-09T03:53:28;14.40;99.90
8340;DHT22;4207;49.314;7.162;2023-05-09T03:55:56;14.50;99.90
8340;DHT22;4207;49.314;7.162;2023-05-09T03:58:25;14.50;99.90
8340;DHT22;4207;49.314;7.162;2023-05-09T04:00:54;14.50;99.90
8340;DHT22;4207;49.314;7.162;2023-05-09T04:03:24;14.50;99.90
8340;DHT22;4207;49.314;7.162;2023-05-09T04:06:04;14.60;99.90
8340;DHT22;4207;49.314;7.162;2023-05-09T04:08:38;14.70;99.90
8340;DHT22;4207;49.314;7.162;2023-05-09T04:11:06;14.70;99.90
8340;DHT22;4207;49.314;7.162;2023-05-09T04:13:36;14.70;99.90
8340;DHT22;4207;49.314;7.162;2023-05-09T04:16:14;14.70;99.90
8340;DHT22;4207;49.314;7.162;2023-05-09T04:18:43;14.70;99.90
8340;DHT22;4207;49.314;7.162;2023-05-09T04:21:12;14.70;99.90
8340;DHT22;4207;49.314;7.162;2023-05-09T04:23:44;14.90;99.90
8340;DHT22;4207;49.314;7.162;2023-05-09T04:26:14;14.70;99.90
8340;DHT22;4207;49.314;7.162;2023-05-09T04:28:46;14.80;99.90
8340;DHT22;4207;49.314;7.162;2023-05-09T04:31:16;14.80;99.90
8340;DHT22;4207;49.314;7.162;2023-05-09T04:33:48;14.90;99.90
8340;DHT22;4207;49.314;7.162;2023-05-09T04:36:19;14.80;99.90
8340;DHT22;4207;49.314;7.162;2023-05-09T04:38:49;14.90;99.90
8340;DHT22;4207;49.314;7.162;2023-05-09T04:41:22;14.80;99.90
8340;DHT22;4207;49.314;7.162;2023-05-09T04:43:51;14.90;99.90
8340;DHT22;4207;49.314;7.162;2023-05-09T04:46:21;14.90;99.90
8340;DHT22;4207;49.314;7.162;2023-05-09T04:48:51;14.90;99.90
8340;DHT22;4207;49.314;7.162;2023-05-09T04:51:20;14.90;99.90
8340;DHT22;4207;49.314;7.162;2023-05-09T04:53:54;15.00;99.90
8340;DHT22;4207;49.314;7.162;2023-05-09T04:56:28;15.00;99.90
8340;DHT22;4207;49.314;7.162;2023-05-09T04:58:58;15.00;99.90
8340;DHT22;4207;49.314;7.162;2023-05-09T05:01:27;15.00;99.90
8340;DHT22;4207;49.314;7.162;2023-05-09T05:03:56;15.00;99.90
8340;DHT22;4207;49.314;7.162;2023-05-09T05:06:24;15.10;99.90
8340;DHT22;4207;49.314;7.162;2023-05-09T05:08:55;15.10;99.90
8340;DHT22;4207;49.314;7.162;2023-05-09T05:11:23;15.10;99.90
8340;DHT22;4207;49.314;7.162;2023-05-09T05:13:52;15.20;99.90
8340;DHT22;4207;49.314;7.162;2023-05-09T05:16:21;15.10;99.90
8340;DHT22;4207;49.314;7.162;2023-05-09T05:18:49;15.30;99.90
8340;DHT22;4207;49.314;7.162;2023-05-09T05:21:18;15.20;99.90
8340;DHT22;4207;49.314;7.162;2023-05-09T05:23:51;15.30;99.90
8340;DHT22;4207;49.314;7.162;2023-05-09T05:26:21;15.30;99.90
8340;DHT22;4207;49.314;7.162;2023-05-09T05:28:49;15.40;99.90
8340;DHT22;4207;49.314;7.162;2023-05-09T05:31:22;15.50;99.90
8340;DHT22;4207;49.314;7.162;2023-05-09T05:33:50;15.60;99.90
8340;DHT22;4207;49.314;7.162;2023-05-09T05:36:20;15.60;99.90
8340;DHT22;4207;49.314;7.162;2023-05-09T05:38:48;15.70;99.90
8340;DHT22;4207;49.314;7.162;2023-05-09T05:41:17;15.70;99.90
8340;DHT22;4207;49.314;7.162;2023-05-09T05:43:47;15.80;99.90
8340;DHT22;4207;49.314;7.162;2023-05-09T05:46:16;15.90;99.90
8340;DHT22;4207;49.314;7.162;2023-05-09T05:48:44;15.90;99.90
8340;DHT22;4207;49.314;7.162;2023-05-09T05:51:12;16.00;99.90
8340;DHT22;4207;49.314;7.162;2023-05-09T05:53:41;16.20;99.90
8340;DHT22;4207;49.314;7.162;2023-05-09T05:56:09;16.00;99.90
8340;DHT22;4207;49.314;7.162;2023-05-09T05:58:37;16.00;99.90
8340;DHT22;4207;49.314;7.162;2023-05-09T06:01:07;16.00;99.90
8340;DHT22;4207;49.314;7.162;2023-05-09T06:03:35;16.10;99.90
8340;DHT22;4207;49.314;7.162;2023-05-09T06:06:06;16.30;99.90
8340;DHT22;4207;49.314;7.162;2023-05-09T06:08:34;16.50;99.90
8340;DHT22;4207;49.314;7.162;2023-05-09T06:11:02;16.70;99.90
8340;DHT22;4207;49.314;7.162;2023-05-09T06:13:31;16.80;99.90
8340;DHT22;4207;49.314;7.162;2023-05-09T06:16:03;16.90;99.90
8340;DHT22;4207;49.314;7.162;2023-05-09T06:18:48;16.90;99.90
8340;DHT22;4207;49.314;7.162;2023-05-09T06:21:20;17.00;99.90
8340;DHT22;4207;49.314;7.162;2023-05-09T06:23:49;17.00;99.90
8340;DHT22;4207;49.314;7.162;2023-05-09T06:26:38;17.20;99.90
8340;DHT22;4207;49.314;7.162;2023-05-09T06:29:06;17.40;99.90
8340;DHT22;4207;49.314;7.162;2023-05-09T06:31:34;17.50;99.90
8340;DHT22;4207;49.314;7.162;2023-05-09T06:34:06;17.60;99.90
8340;DHT22;4207;49.314;7.162;2023-05-09T06:36:34;17.80;99.90
8340;DHT22;4207;49.314;7.162;2023-05-09T06:39:03;18.00;99.90
8340;DHT22;4207;49.314;7.162;2023-05-09T06:41:31;18.10;99.90
8340;DHT22;4207;49.314;7.162;2023-05-09T06:43:59;18.10;99.90
8340;DHT22;4207;49.314;7.162;2023-05-09T06:46:28;18.20;99.90
8340;DHT22;4207;49.314;7.162;2023-05-09T06:48:56;18.10;99.90
8340;DHT22;4207;49.314;7.162;2023-05-09T06:51:28;18.10;99.90
8340;DHT22;4207;49.314;7.162;2023-05-09T06:53:57;18.10;99.90
8340;DHT22;4207;49.314;7.162;2023-05-09T06:56:25;18.10;99.90
8340;DHT22;4207;49.314;7.162;2023-05-09T06:58:56;18.10;99.90
8340;DHT22;4207;49.314;7.162;2023-05-09T07:01:24;18.00;99.90
8340;DHT22;4207;49.314;7.162;2023-05-09T07:03:55;18.10;99.90
8340;DHT22;4207;49.314;7.162;2023-05-09T07:06:24;18.10;99.90
8340;DHT22;4207;49.314;7.162;2023-05-09T07:08:55;18.20;99.90
8340;DHT22;4207;49.314;7.162;2023-05-09T07:11:24;18.30;99.90
8340;DHT22;4207;49.314;7.162;2023-05-09T07:13:52;18.30;99.90
8340;DHT22;4207;49.314;7.162;2023-05-09T07:16:21;18.40;99.90
8340;DHT22;4207;49.314;7.162;2023-05-09T07:18:49;18.50;99.90
8340;DHT22;4207;49.314;7.162;2023-05-09T07:21:17;18.60;99.90
8340;DHT22;4207;49.314;7.162;2023-05-09T07:23:48;18.70;99.90
8340;DHT22;4207;49.314;7.162;2023-05-09T07:26:18;18.70;99.90
8340;DHT22;4207;49.314;7.162;2023-05-09T07:28:47;18.80;99.90
8340;DHT22;4207;49.314;7.162;2023-05-09T07:31:15;18.80;99.90
8340;DHT22;4207;49.314;7.162;2023-05-09T07:33:45;18.80;99.90
8340;DHT22;4207;49.314;7.162;2023-05-09T07:36:13;18.90;99.90
8340;DHT22;4207;49.314;7.162;2023-05-09T07:38:45;18.90;99.90
8340;DHT22;4207;49.314;7.162;2023-05-09T07:41:13;18.90;99.90
8340;DHT22;4207;49.314;7.162;2023-05-09T07:43:43;19.00;99.90
8340;DHT22;4207;49.314;7.162;2023-05-09T07:46:11;19.10;99.90
8340;DHT22;4207;49.314;7.162;2023-05-09T07:48:40;19.30;99.90
8340;DHT22;4207;49.314;7.162;2023-05-09T07:51:09;19.30;99.90
8340;DHT22;4207;49.314;7.162;2023-05-09T07:53:38;19.50;99.90
8340;DHT22;4207;49.314;7.162;2023-05-09T07:56:06;19.60;99.90
8340;DHT22;4207;49.314;7.162;2023-05-09T07:58:34;19.60;99.90
8340;DHT22;4207;49.314;7.162;2023-05-09T08:01:03;19.70;99.90
8340;DHT22;4207;49.314;7.162;2023-05-09T08:03:32;19.70;99.90
8340;DHT22;4207;49.314;7.162;2023-05-09T08:06:00;19.70;99.90
8340;DHT22;4207;49.314;7.162;2023-05-09T08:08:28;19.90;99.90
8340;DHT22;4207;49.314;7.162;2023-05-09T08:10:56;20.00;99.90
8340;DHT22;4207;49.314;7.162;2023-05-09T08:13:25;20.10;99.90
8340;DHT22;4207;49.314;7.162;2023-05-09T08:15:53;20.20;99.90
8340;DHT22;4207;49.314;7.162;2023-05-09T08:18:22;20.20;99.90
8340;DHT22;4207;49.314;7.162;2023-05-09T08:20:50;20.30;99.90
8340;DHT22;4207;49.314;7.162;2023-05-09T08:23:18;20.40;99.90
8340;DHT22;4207;49.314;7.162;2023-05-09T08:25:46;20.40;99.90
8340;DHT22;4207;49.314;7.162;2023-05-09T08:28:16;20.40;99.90
8340;DHT22;4207;49.314;7.162;2023-05-09T08:30:44;20.50;99.90
8340;DHT22;4207;49.314;7.162;2023-05-09T08:33:12;20.60;99.90
8340;DHT22;4207;49.314;7.162;2023-05-09T08:35:44;20.60;99.90
8340;DHT22;4207;49.314;7.162;2023-05-09T08:38:12;20.50;99.90
8340;DHT22;4207;49.314;7.162;2023-05-09T08:40:40;20.60;99.90
8340;DHT22;4207;49.314;7.162;2023-05-09T08:43:09;20.60;99.90
8340;DHT22;4207;49.314;7.162;2023-05-09T08:45:44;20.80;99.90
8340;DHT22;4207;49.314;7.162;2023-05-09T08:48:17;20.90;99.90
8340;DHT22;4207;49.314;7.162;2023-05-09T08:50:47;21.10;99.90
8340;DHT22;4207;49.314;7.162;2023-05-09T08:53:16;21.20;99.90
8340;DHT22;4207;49.314;7.162;2023-05-09T08:55:45;21.30;99.90
8340;DHT22;4207;49.314;7.162;2023-05-09T08:58:14;21.30;99.90
8340;DHT22;4207;49.314;7.162;2023-05-09T09:00:42;21.50;99.90
8340;DHT22;4207;49.314;7.162;2023-05-09T09:03:10;21.60;99.90
8340;DHT22;4207;49.314;7.162;2023-05-09T09:05:50;21.70;99.90
8340;DHT22;4207;49.314;7.162;2023-05-09T09:08:22;21.80;99.90
8340;DHT22;4207;49.314;7.162;2023-05-09T09:10:55;21.90;99.90
8340;DHT22;4207;49.314;7.162;2023-05-09T09:13:23;22.00;99.90
8340;DHT22;4207;49.314;7.162;2023-05-09T09:15:52;22.00;99.90
8340;DHT22;4207;49.314;7.162;2023-05-09T09:18:23;22.00;99.90
8340;DHT22;4207;49.314;7.162;2023-05-09T09:20:58;21.90;99.90
8340;DHT22;4207;49.314;7.162;2023-05-09T09:23:28;21.80;99.90
8340;DHT22;4207;49.314;7.162;2023-05-09T09:25:58;21.90;99.90
8340;DHT22;4207;49.314;7.162;2023-05-09T09:28:26;21.90;99.90
8340;DHT22;4207;49.314;7.162;2023-05-09T09:30:55;21.90;99.90
8340;DHT22;4207;49.314;7.162;2023-05-09T09:33:25;22.00;99.90
8340;DHT22;4207;49.314;7.162;2023-05-09T09:35:56;22.00;99.90
8340;DHT22;4207;49.314;7.162;2023-05-09T09:38:25;22.00;99.90
8340;DHT22;4207;49.314;7.162;2023-05-09T09:40:54;22.00;99.90
8340;DHT22;4207;49.314;7.162;2023-05-09T09:43:29;22.00;99.90
8340;DHT22;4207;49.314;7.162;2023-05-09T09:46:00;22.00;99.90
8340;DHT22;4207;49.314;7.162;2023-05-09T09:48:31;22.00;99.90
8340;DHT22;4207;49.314;7.162;2023-05-09T09:51:06;22.10;99.90
8340;DHT22;4207;49.314;7.162;2023-05-09T09:53:40;22.10;99.90
8340;DHT22;4207;49.314;7.162;2023-05-09T09:56:09;22.20;99.90
8340;DHT22;4207;49.314;7.162;2023-05-09T09:58:37;22.20;99.90
8340;DHT22;4207;49.314;7.162;2023-05-09T10:01:07;22.30;99.90
8340;DHT22;4207;49.314;7.162;2023-05-09T10:03:36;22.40;99.90
8340;DHT22;4207;49.314;7.162;2023-05-09T10:06:08;22.50;99.90
8340;DHT22;4207;49.314;7.162;2023-05-09T10:08:37;22.60;99.90
8340;DHT22;4207;49.314;7.162;2023-05-09T10:11:08;22.60;99.90
8340;DHT22;4207;49.314;7.162;2023-05-09T10:13:37;22.60;99.90
8340;DHT22;4207;49.314;7.162;2023-05-09T10:16:07;22.60;99.90
8340;DHT22;4207;49.314;7.162;2023-05-09T10:18:38;22.50;99.90
8340;DHT22;4207;49.314;7.162;2023-05-09T10:21:10;22.50;99.90
8340;DHT22;4207;49.314;7.162;2023-05-09T10:23:45;22.40;99.90
8340;DHT22;4207;49.314;7.162;2023-05-09T10:26:17;22.50;99.90
8340;DHT22;4207;49.314;7.162;2023-05-09T10:28:54;22.60;99.90
8340;DHT22;4207;49.314;7.162;2023-05-09T10:31:25;22.70;99.90
8340;DHT22;4207;49.314;7.162;2023-05-09T10:33:54;22.90;99.90
8340;DHT22;4207;49.314;7.162;2023-05-09T10:36:24;23.10;99.90
8340;DHT22;4207;49.314;7.162;2023-05-09T10:38:54;23.30;99.90
8340;DHT22;4207;49.314;7.162;2023-05-09T10:41:22;23.50;99.90
8340;DHT22;4207;49.314;7.162;2023-05-09T10:43:51;23.80;99.90
8340;DHT22;4207;49.314;7.162;2023-05-09T10:46:22;23.90;99.90
8340;DHT22;4207;49.314;7.162;2023-05-09T10:48:51;24.10;99.90
8340;DHT22;4207;49.314;7.162;2023-05-09T10:51:20;24.10;99.90
8340;DHT22;4207;49.314;7.162;2023-05-09T10:53:50;24.30;99.90
8340;DHT22;4207;49.314;7.162;2023-05-09T10:56:22;24.30;99.90
8340;DHT22;4207;49.314;7.162;2023-05-09T10:58:51;24.40;99.90
8340;DHT22;4207;49.314;7.162;2023-05-09T11:01:28;24.50;99.90
8340;DHT22;4207;49.314;7.162;2023-05-09T11:03:59;24.50;99.90
8340;DHT22;4207;49.314;7.162;2023-05-09T11:06:42;24.50;99.90
8340;DHT22;4207;49.314;7.162;2023-05-09T11:09:28;24.40;99.90
8340;DHT22;4207;49.314;7.162;2023-05-09T11:12:06;24.30;99.90
8340;DHT22;4207;49.314;7.162;2023-05-09T11:14:39;24.10;99.90
8340;DHT22;4207;49.314;7.162;2023-05-09T11:17:11;24.10;99.90
8340;DHT22;4207;49.314;7.162;2023-05-09T11:19:57;24.10;99.90
8340;DHT22;4207;49.314;7.162;2023-05-09T11:22:27;24.00;99.90
8340;DHT22;4207;49.314;7.162;2023-05-09T11:25:02;23.90;99.90
8340;DHT22;4207;49.314;7.162;2023-05-09T11:27:41;23.90;99.90
8340;DHT22;4207;49.314;7.162;2023-05-09T11:30:11;23.80;99.90
8340;DHT22;4207;49.314;7.162;2023-05-09T11:32:49;23.80;99.90
8340;DHT22;4207;49.314;7.162;2023-05-09T11:35:19;23.70;99.90
8340;DHT22;4207;49.314;7.162;2023-05-09T11:37:49;23.70;99.90
8340;DHT22;4207;49.314;7.162;2023-05-09T11:40:21;23.60;99.90
8340;DHT22;4207;49.314;7.162;2023-05-09T11:42:51;23.60;99.90
8340;DHT22;4207;49.314;7.162;2023-05-09T11:45:26;23.60;99.90
8340;DHT22;4207;49.314;7.162;2023-05-09T11:47:57;23.60;99.90
8340;DHT22;4207;49.314;7.162;2023-05-09T11:50:31;23.70;99.90
8340;DHT22;4207;49.314;7.162;2023-05-09T11:52:59;23.90;99.90
8340;DHT22;4207;49.314;7.162;2023-05-09T11:55:29;24.00;99.90
8340;DHT22;4207;49.314;7.162;2023-05-09T11:57:58;24.10;99.90
8340;DHT22;4207;49.314;7.162;2023-05-09T12:00:26;24.20;99.90
8340;DHT22;4207;49.314;7.162;2023-05-09T12:02:54;24.20;99.90
8340;DHT22;4207;49.314;7.162;2023-05-09T12:05:23;24.30;99.90
8340;DHT22;4207;49.314;7.162;2023-05-09T12:07:51;24.40;99.40
8340;DHT22;4207;49.314;7.162;2023-05-09T12:10:21;24.30;98.80
8340;DHT22;4207;49.314;7.162;2023-05-09T12:12:51;24.30;98.90
8340;DHT22;4207;49.314;7.162;2023-05-09T12:15:21;24.20;98.30
8340;DHT22;4207;49.314;7.162;2023-05-09T12:18:00;24.20;98.50
8340;DHT22;4207;49.314;7.162;2023-05-09T12:20:39;24.30;99.10
8340;DHT22;4207;49.314;7.162;2023-05-09T12:23:08;24.50;99.40
8340;DHT22;4207;49.314;7.162;2023-05-09T12:25:37;24.50;97.80
8340;DHT22;4207;49.314;7.162;2023-05-09T12:28:06;24.30;98.00
8340;DHT22;4207;49.314;7.162;2023-05-09T12:30:35;24.20;98.20
8340;DHT22;4207;49.314;7.162;2023-05-09T12:33:06;24.20;98.00
8340;DHT22;4207;49.314;7.162;2023-05-09T12:35:37;24.10;97.60
8340;DHT22;4207;49.314;7.162;2023-05-09T12:38:05;24.10;97.90
8340;DHT22;4207;49.314;7.162;2023-05-09T12:40:33;24.10;97.60
8340;DHT22;4207;49.314;7.162;2023-05-09T12:43:01;24.10;97.70
8340;DHT22;4207;49.314;7.162;2023-05-09T12:45:32;24.10;97.40
8340;DHT22;4207;49.314;7.162;2023-05-09T12:48:00;24.00;97.10
8340;DHT22;4207;49.314;7.162;2023-05-09T12:50:31;24.00;97.30
8340;DHT22;4207;49.314;7.162;2023-05-09T12:53:01;24.00;96.70
8340;DHT22;4207;49.314;7.162;2023-05-09T12:55:30;24.00;96.80
8340;DHT22;4207;49.314;7.162;2023-05-09T12:58:05;24.00;96.60
8340;DHT22;4207;49.314;7.162;2023-05-09T13:00:44;24.00;96.10
8340;DHT22;4207;49.314;7.162;2023-05-09T13:03:22;23.90;96.50
8340;DHT22;4207;49.314;7.162;2023-05-09T13:05:56;23.90;96.40
8340;DHT22;4207;49.314;7.162;2023-05-09T13:08:25;23.90;96.30
8340;DHT22;4207;49.314;7.162;2023-05-09T13:10:53;23.90;96.70
8340;DHT22;4207;49.314;7.162;2023-05-09T13:13:41;23.90;96.60
8340;DHT22;4207;49.314;7.162;2023-05-09T13:16:12;23.90;96.60
8340;DHT22;4207;49.314;7.162;2023-05-09T13:18:43;23.90;97.10
8340;DHT22;4207;49.314;7.162;2023-05-09T13:21:11;23.80;97.10
8340;DHT22;4207;49.314;7.162;2023-05-09T13:23:39;23.70;96.70
8340;DHT22;4207;49.314;7.162;2023-05-09T13:26:10;23.50;96.10
8340;DHT22;4207;49.314;7.162;2023-05-09T13:28:38;23.40;96.50
8340;DHT22;4207;49.314;7.162;2023-05-09T13:31:06;23.20;96.70
8340;DHT22;4207;49.314;7.162;2023-05-09T13:33:38;23.10;96.80
8340;DHT22;4207;49.314;7.162;2023-05-09T13:36:08;23.00;96.80
8340;DHT22;4207;49.314;7.162;2023-05-09T13:38:37;22.90;97.00
8340;DHT22;4207;49.314;7.162;2023-05-09T13:41:06;22.80;97.30
8340;DHT22;4207;49.314;7.162;2023-05-09T13:43:35;22.70;97.70
8340;DHT22;4207;49.314;7.162;2023-05-09T13:46:04;22.70;98.10
8340;DHT22;4207;49.314;7.162;2023-05-09T13:48:32;22.70;98.70
8340;DHT22;4207;49.314;7.162;2023-05-09T13:51:02;22.70;98.40
8340;DHT22;4207;49.314;7.162;2023-05-09T13:53:31;22.70;98.00
8340;DHT22;4207;49.314;7.162;2023-05-09T13:56:02;22.60;98.10
8340;DHT22;4207;49.314;7.162;2023-05-09T13:58:32;22.50;98.20
8340;DHT22;4207;49.314;7.162;2023-05-09T14:01:00;22.40;98.40
8340;DHT22;4207;49.314;7.162;2023-05-09T14:03:28;22.30;98.10
8340;DHT22;4207;49.314;7.162;2023-05-09T14:05:57;22.40;98.20
8340;DHT22;4207;49.314;7.162;2023-05-09T14:08:27;22.30;98.50
8340;DHT22;4207;49.314;7.162;2023-05-09T14:10:55;22.30;98.80
8340;DHT22;4207;49.314;7.162;2023-05-09T14:13:24;22.30;99.30
8340;DHT22;4207;49.314;7.162;2023-05-09T14:15:52;22.20;99.90
8340;DHT22;4207;49.314;7.162;2023-05-09T14:18:28;22.10;99.90
8340;DHT22;4207;49.314;7.162;2023-05-09T14:21:11;22.10;99.90
8340;DHT22;4207;49.314;7.162;2023-05-09T14:23:43;21.90;99.90
8340;DHT22;4207;49.314;7.162;2023-05-09T14:26:11;21.80;99.90
8340;DHT22;4207;49.314;7.162;2023-05-09T14:28:39;21.70;99.90
8340;DHT22;4207;49.314;7.162;2023-05-09T14:31:08;21.70;99.90
8340;DHT22;4207;49.314;7.162;2023-05-09T14:33:37;21.50;99.90
8340;DHT22;4207;49.314;7.162;2023-05-09T14:36:10;21.40;99.90
8340;DHT22;4207;49.314;7.162;2023-05-09T14:38:47;21.30;99.90
8340;DHT22;4207;49.314;7.162;2023-05-09T14:41:24;21.10;99.90
8340;DHT22;4207;49.314;7.162;2023-05-09T14:43:53;21.00;99.90
8340;DHT22;4207;49.314;7.162;2023-05-09T14:46:21;20.70;99.90
8340;DHT22;4207;49.314;7.162;2023-05-09T14:48:50;20.50;99.90
8340;DHT22;4207;49.314;7.162;2023-05-09T14:51:18;20.30;99.90
8340;DHT22;4207;49.314;7.162;2023-05-09T14:53:48;20.10;99.90
8340;DHT22;4207;49.314;7.162;2023-05-09T14:56:21;20.00;99.90
8340;DHT22;4207;49.314;7.162;2023-05-09T14:58:49;19.80;99.90
8340;DHT22;4207;49.314;7.162;2023-05-09T15:01:17;19.60;99.90
8340;DHT22;4207;49.314;7.162;2023-05-09T15:03:46;19.50;99.90
8340;DHT22;4207;49.314;7.162;2023-05-09T15:06:15;19.40;99.90
8340;DHT22;4207;49.314;7.162;2023-05-09T15:08:43;19.20;99.90
8340;DHT22;4207;49.314;7.162;2023-05-09T15:11:13;19.00;99.90
8340;DHT22;4207;49.314;7.162;2023-05-09T15:13:41;18.90;99.90
8340;DHT22;4207;49.314;7.162;2023-05-09T15:16:09;18.80;99.90
8340;DHT22;4207;49.314;7.162;2023-05-09T15:18:37;18.70;99.90
8340;DHT22;4207;49.314;7.162;2023-05-09T15:21:09;18.50;99.90
8340;DHT22;4207;49.314;7.162;2023-05-09T15:23:38;18.20;99.90
8340;DHT22;4207;49.314;7.162;2023-05-09T15:26:06;18.10;99.90
8340;DHT22;4207;49.314;7.162;2023-05-09T15:28:39;17.90;99.90
8340;DHT22;4207;49.314;7.162;2023-05-09T15:31:07;17.80;99.90
8340;DHT22;4207;49.314;7.162;2023-05-09T15:33:35;17.60;99.90
8340;DHT22;4207;49.314;7.162;2023-05-09T15:36:07;17.60;99.90
8340;DHT22;4207;49.314;7.162;2023-05-09T15:38:35;17.60;99.90
8340;DHT22;4207;49.314;7.162;2023-05-09T15:41:03;17.70;99.90
8340;DHT22;4207;49.314;7.162;2023-05-09T15:43:32;17.70;99.90
8340;DHT22;4207;49.314;7.162;2023-05-09T15:46:03;17.70;99.90
8340;DHT22;4207;49.314;7.162;2023-05-09T15:48:31;17.60;99.90
8340;DHT22;4207;49.314;7.162;2023-05-09T15:51:05;17.60;99.90
8340;DHT22;4207;49.314;7.162;2023-05-09T15:53:34;17.50;99.90
8340;DHT22;4207;49.314;7.162;2023-05-09T15:56:03;17.50;99.90
8340;DHT22;4207;49.314;7.162;2023-05-09T15:58:31;17.60;99.90
8340;DHT22;4207;49.314;7.162;2023-05-09T16:01:01;17.70;99.90
8340;DHT22;4207;49.314;7.162;2023-05-09T16:03:33;17.60;99.90
8340;DHT22;4207;49.314;7.162;2023-05-09T16:06:01;17.60;99.90
8340;DHT22;4207;49.314;7.162;2023-05-09T16:08:30;17.50;99.90
8340;DHT22;4207;49.314;7.162;2023-05-09T16:10:58;17.40;99.90
8340;DHT22;4207;49.314;7.162;2023-05-09T16:13:27;17.30;99.90
8340;DHT22;4207;49.314;7.162;2023-05-09T16:15:57;17.30;99.90
8340;DHT22;4207;49.314;7.162;2023-05-09T16:18:27;17.40;99.90
8340;DHT22;4207;49.314;7.162;2023-05-09T16:20:55;17.40;99.90
8340;DHT22;4207;49.314;7.162;2023-05-09T16:23:26;17.40;99.90